sensor_id;sensor_type;location;lat;lon;timestamp;P1;durP1;ratioP1;P2;durP2;ratioP2
10088;SDS011;51898;49.864;8.550;2024-02-26T00:01:38;4.90;;;2.70;;
10088;SDS011;51898;49.864;8.550;2024-02-26T00:04:39;3.23;;;2.10;;
10088;SDS011;51898;49.864;8.550;2024-02-26T00:07:44;2.53;;;1.70;;
10088;SDS011;51898;49.864;8.550;2024-02-26T00:10:46;2.57;;;2.00;;
10088;SDS011;51898;49.864;8.550;2024-02-26T00:13:48;1.63;;;1.47;;
10088;SDS011;51898;49.864;8.550;2024-02-26T00:16:50;1.50;;;1.37;;
10088;SDS011;51898;49.864;8.550;2024-02-26T00:19:52;3.53;;;1.77;;
10088;SDS011;51898;49.864;8.550;2024-02-26T00:22:54;1.90;;;1.30;;
10088;SDS011;51898;49.864;8.550;2024-02-26T00:25:56;1.57;;;1.40;;
10088;SDS011;51898;49.864;8.550;2024-02-26T00:28:59;1.50;;;1.40;;
10088;SDS011;51898;49.864;8.550;2024-02-26T00:32:01;2.13;;;1.90;;
10088;SDS011;51898;49.864;8.550;2024-02-26T00:35:02;1.90;;;1.70;;
10088;SDS011;51898;49.864;8.550;2024-02-26T00:38:04;1.70;;;1.60;;
10088;SDS011;51898;49.864;8.550;2024-02-26T00:41:06;2.33;;;1.50;;
10088;SDS011;51898;49.864;8.550;2024-02-26T00:44:08;1.47;;;1.37;;
10088;SDS011;51898;49.864;8.550;2024-02-26T00:47:10;1.90;;;1.50;;
10088;SDS011;51898;49.864;8.550;2024-02-26T00:50:12;3.57;;;2.00;;
10088;SDS011;51898;49.864;8.550;2024-02-26T00:53:14;6.70;;;4.50;;
10088;SDS011;51898;49.864;8.550;2024-02-26T00:56:15;2.07;;;1.90;;
10088;SDS011;51898;49.864;8.550;2024-02-26T00:59:17;4.00;;;2.97;;
10088;SDS011;51898;49.864;8.550;2024-02-26T01:02:19;3.87;;;2.47;;
10088;SDS011;51898;49.864;8.550;2024-02-26T01:05:20;2.80;;;2.27;;
10088;SDS011;51898;49.864;8.550;2024-02-26T01:08:22;2.60;;;1.60;;
10088;SDS011;51898;49.864;8.550;2024-02-26T01:11:24;1.90;;;1.60;;
10088;SDS011;51898;49.864;8.550;2024-02-26T01:14:26;2.23;;;1.53;;
10088;SDS011;51898;49.864;8.550;2024-02-26T01:17:28;2.43;;;1.37;;
10088;SDS011;51898;49.864;8.550;2024-02-26T01:20:29;1.90;;;1.63;;
10088;SDS011;51898;49.864;8.550;2024-02-26T01:23:31;2.10;;;1.90;;
10088;SDS011;51898;49.864;8.550;2024-02-26T01:26:33;2.30;;;1.77;;
10088;SDS011;51898;49.864;8.550;2024-02-26T01:29:35;1.50;;;1.40;;
10088;SDS011;51898;49.864;8.550;2024-02-26T01:32:36;1.77;;;1.40;;
10088;SDS011;51898;49.864;8.550;2024-02-26T01:35:38;1.70;;;1.50;;
10088;SDS011;51898;49.864;8.550;2024-02-26T01:38:40;1.70;;;1.50;;
10088;SDS011;51898;49.864;8.550;2024-02-26T01:41:42;2.13;;;1.87;;
10088;SDS011;51898;49.864;8.550;2024-02-26T01:44:44;2.60;;;2.30;;
10088;SDS011;51898;49.864;8.550;2024-02-26T01:47:46;1.80;;;1.50;;
10088;SDS011;51898;49.864;8.550;2024-02-26T01:50:49;1.70;;;1.60;;
10088;SDS011;51898;49.864;8.550;2024-02-26T01:53:51;1.60;;;1.50;;
10088;SDS011;51898;49.864;8.550;2024-02-26T01:56:53;2.10;;;1.73;;
10088;SDS011;51898;49.864;8.550;2024-02-26T01:59:55;2.00;;;1.70;;
10088;SDS011;51898;49.864;8.550;2024-02-26T02:02:57;2.30;;;1.67;;
10088;SDS011;51898;49.864;8.550;2024-02-26T02:05:59;2.30;;;1.80;;
10088;SDS011;51898;49.864;8.550;2024-02-26T02:09:01;1.70;;;1.60;;
10088;SDS011;51898;49.864;8.550;2024-02-26T02:12:07;2.40;;;1.57;;
10088;SDS011;51898;49.864;8.550;2024-02-26T02:15:10;5.23;;;1.60;;
10088;SDS011;51898;49.864;8.550;2024-02-26T02:18:12;2.10;;;1.53;;
10088;SDS011;51898;49.864;8.550;2024-02-26T02:21:14;1.67;;;1.57;;
10088;SDS011;51898;49.864;8.550;2024-02-26T02:24:16;1.87;;;1.60;;
10088;SDS011;51898;49.864;8.550;2024-02-26T02:27:18;1.80;;;1.70;;
10088;SDS011;51898;49.864;8.550;2024-02-26T02:30:21;3.40;;;2.10;;
10088;SDS011;51898;49.864;8.550;2024-02-26T02:33:27;2.60;;;2.17;;
10088;SDS011;51898;49.864;8.550;2024-02-26T02:36:29;2.77;;;1.70;;
10088;SDS011;51898;49.864;8.550;2024-02-26T02:39:31;1.73;;;1.53;;
10088;SDS011;51898;49.864;8.550;2024-02-26T02:42:32;3.57;;;1.67;;
10088;SDS011;51898;49.864;8.550;2024-02-26T02:45:34;3.37;;;1.73;;
10088;SDS011;51898;49.864;8.550;2024-02-26T02:48:36;2.50;;;2.00;;
10088;SDS011;51898;49.864;8.550;2024-02-26T02:51:38;2.10;;;1.90;;
10088;SDS011;51898;49.864;8.550;2024-02-26T02:54:39;2.63;;;2.03;;
10088;SDS011;51898;49.864;8.550;2024-02-26T02:57:43;1.90;;;1.80;;
10088;SDS011;51898;49.864;8.550;2024-02-26T03:00:46;4.10;;;1.70;;
10088;SDS011;51898;49.864;8.550;2024-02-26T03:03:47;2.30;;;1.80;;
10088;SDS011;51898;49.864;8.550;2024-02-26T03:06:49;2.30;;;1.80;;
10088;SDS011;51898;49.864;8.550;2024-02-26T03:09:51;1.50;;;1.40;;
10088;SDS011;51898;49.864;8.550;2024-02-26T03:12:53;4.10;;;2.10;;
10088;SDS011;51898;49.864;8.550;2024-02-26T03:15:55;3.60;;;2.00;;
10088;SDS011;51898;49.864;8.550;2024-02-26T03:18:56;1.70;;;1.60;;
10088;SDS011;51898;49.864;8.550;2024-02-26T03:21:58;2.10;;;1.90;;
10088;SDS011;51898;49.864;8.550;2024-02-26T03:25:00;1.50;;;1.40;;
10088;SDS011;51898;49.864;8.550;2024-02-26T03:28:02;1.50;;;1.40;;
10088;SDS011;51898;49.864;8.550;2024-02-26T03:31:04;1.70;;;1.60;;
10088;SDS011;51898;49.864;8.550;2024-02-26T03:34:06;1.73;;;1.63;;
10088;SDS011;51898;49.864;8.550;2024-02-26T03:37:08;2.67;;;2.00;;
10088;SDS011;51898;49.864;8.550;2024-02-26T03:40:12;2.80;;;1.93;;
10088;SDS011;51898;49.864;8.550;2024-02-26T03:43:16;2.03;;;1.87;;
10088;SDS011;51898;49.864;8.550;2024-02-26T03:46:18;2.77;;;1.97;;
10088;SDS011;51898;49.864;8.550;2024-02-26T04:22:47;2.30;;;2.10;;
10088;SDS011;51898;49.864;8.550;2024-02-26T04:36:00;2.70;;;2.50;;
10088;SDS011;51898;49.864;8.550;2024-02-26T06:32:05;8.63;;;4.63;;
10088;SDS011;51898;49.864;8.550;2024-02-26T06:35:07;8.80;;;4.50;;
10088;SDS011;51898;49.864;8.550;2024-02-26T06:38:11;22.83;;;15.70;;
10088;SDS011;51898;49.864;8.550;2024-02-26T06:41:14;10.10;;;6.60;;
10088;SDS011;51898;49.864;8.550;2024-02-26T06:44:16;11.43;;;8.37;;
10088;SDS011;51898;49.864;8.550;2024-02-26T06:47:18;22.10;;;19.87;;
10088;SDS011;51898;49.864;8.550;2024-02-26T06:50:20;15.03;;;13.50;;
10088;SDS011;51898;49.864;8.550;2024-02-26T06:53:22;12.53;;;7.77;;
10088;SDS011;51898;49.864;8.550;2024-02-26T06:56:24;12.97;;;10.50;;
10088;SDS011;51898;49.864;8.550;2024-02-26T06:59:26;9.60;;;6.60;;
10088;SDS011;51898;49.864;8.550;2024-02-26T07:02:28;7.20;;;6.60;;
10088;SDS011;51898;49.864;8.550;2024-02-26T07:05:32;14.90;;;9.20;;
10088;SDS011;51898;49.864;8.550;2024-02-26T07:08:34;6.90;;;6.13;;
10088;SDS011;51898;49.864;8.550;2024-02-26T07:11:36;11.63;;;9.50;;
10088;SDS011;51898;49.864;8.550;2024-02-26T07:14:38;18.40;;;16.73;;
10088;SDS011;51898;49.864;8.550;2024-02-26T07:17:40;6.77;;;5.10;;
10088;SDS011;51898;49.864;8.550;2024-02-26T07:20:48;6.80;;;5.20;;
10088;SDS011;51898;49.864;8.550;2024-02-26T07:23:50;9.53;;;7.63;;
10088;SDS011;51898;49.864;8.550;2024-02-26T07:26:52;7.80;;;5.30;;
10088;SDS011;51898;49.864;8.550;2024-02-26T07:29:56;15.67;;;13.93;;
10088;SDS011;51898;49.864;8.550;2024-02-26T07:32:58;11.43;;;6.43;;
10088;SDS011;51898;49.864;8.550;2024-02-26T07:35:59;11.93;;;8.27;;
10088;SDS011;51898;49.864;8.550;2024-02-26T07:39:02;7.30;;;5.90;;
10088;SDS011;51898;49.864;8.550;2024-02-26T07:42:04;8.47;;;7.43;;
10088;SDS011;51898;49.864;8.550;2024-02-26T07:45:06;14.13;;;7.03;;
10088;SDS011;51898;49.864;8.550;2024-02-26T07:48:08;9.83;;;7.40;;
10088;SDS011;51898;49.864;8.550;2024-02-26T07:51:12;7.33;;;5.80;;
10088;SDS011;51898;49.864;8.550;2024-02-26T07:54:15;6.67;;;5.23;;
10088;SDS011;51898;49.864;8.550;2024-02-26T07:57:17;10.27;;;6.50;;
10088;SDS011;51898;49.864;8.550;2024-02-26T08:00:19;10.70;;;6.40;;
10088;SDS011;51898;49.864;8.550;2024-02-26T08:03:21;8.20;;;5.40;;
10088;SDS011;51898;49.864;8.550;2024-02-26T08:06:23;7.03;;;5.33;;
10088;SDS011;51898;49.864;8.550;2024-02-26T08:09:26;9.47;;;6.23;;
10088;SDS011;51898;49.864;8.550;2024-02-26T08:12:27;7.17;;;5.33;;
10088;SDS011;51898;49.864;8.550;2024-02-26T08:15:29;8.73;;;6.33;;
10088;SDS011;51898;49.864;8.550;2024-02-26T08:18:32;9.47;;;6.10;;
10088;SDS011;51898;49.864;8.550;2024-02-26T08:21:33;8.50;;;5.83;;
10088;SDS011;51898;49.864;8.550;2024-02-26T08:24:35;8.80;;;5.90;;
10088;SDS011;51898;49.864;8.550;2024-02-26T08:27:37;10.70;;;6.90;;
10088;SDS011;51898;49.864;8.550;2024-02-26T08:30:39;12.20;;;6.63;;
10088;SDS011;51898;49.864;8.550;2024-02-26T08:33:40;9.80;;;6.43;;
10088;SDS011;51898;49.864;8.550;2024-02-26T08:36:42;12.60;;;7.17;;
10088;SDS011;51898;49.864;8.550;2024-02-26T08:39:45;9.63;;;6.03;;
10088;SDS011;51898;49.864;8.550;2024-02-26T08:42:47;10.57;;;5.60;;
10088;SDS011;51898;49.864;8.550;2024-02-26T08:45:49;9.00;;;6.40;;
10088;SDS011;51898;49.864;8.550;2024-02-26T08:48:51;10.53;;;6.63;;
10088;SDS011;51898;49.864;8.550;2024-02-26T08:51:53;12.40;;;5.90;;
10088;SDS011;51898;49.864;8.550;2024-02-26T08:54:55;8.70;;;5.70;;
10088;SDS011;51898;49.864;8.550;2024-02-26T08:57:57;10.17;;;6.90;;
10088;SDS011;51898;49.864;8.550;2024-02-26T09:00:58;11.57;;;7.10;;
10088;SDS011;51898;49.864;8.550;2024-02-26T09:04:00;12.03;;;6.90;;
10088;SDS011;51898;49.864;8.550;2024-02-26T09:07:02;13.90;;;6.83;;
10088;SDS011;51898;49.864;8.550;2024-02-26T09:10:05;10.77;;;6.30;;
10088;SDS011;51898;49.864;8.550;2024-02-26T09:13:07;9.07;;;6.70;;
10088;SDS011;51898;49.864;8.550;2024-02-26T09:16:08;9.10;;;6.60;;
10088;SDS011;51898;49.864;8.550;2024-02-26T09:19:10;7.60;;;6.07;;
10088;SDS011;51898;49.864;8.550;2024-02-26T09:22:13;9.43;;;5.97;;
10088;SDS011;51898;49.864;8.550;2024-02-26T09:25:19;10.30;;;6.57;;
10088;SDS011;51898;49.864;8.550;2024-02-26T09:28:20;10.37;;;6.30;;
10088;SDS011;51898;49.864;8.550;2024-02-26T09:31:22;8.87;;;6.60;;
10088;SDS011;51898;49.864;8.550;2024-02-26T09:34:24;12.53;;;6.87;;
10088;SDS011;51898;49.864;8.550;2024-02-26T09:37:26;9.07;;;5.77;;
10088;SDS011;51898;49.864;8.550;2024-02-26T09:40:27;11.13;;;6.53;;
10088;SDS011;51898;49.864;8.550;2024-02-26T09:43:32;10.13;;;7.50;;
10088;SDS011;51898;49.864;8.550;2024-02-26T09:46:37;7.30;;;5.90;;
10088;SDS011;51898;49.864;8.550;2024-02-26T09:49:39;8.83;;;6.50;;
10088;SDS011;51898;49.864;8.550;2024-02-26T09:52:41;7.80;;;5.67;;
10088;SDS011;51898;49.864;8.550;2024-02-26T09:55:43;12.10;;;6.00;;
10088;SDS011;51898;49.864;8.550;2024-02-26T09:58:48;9.43;;;6.37;;
10088;SDS011;51898;49.864;8.550;2024-02-26T10:01:55;8.20;;;6.10;;
10088;SDS011;51898;49.864;8.550;2024-02-26T10:04:59;7.50;;;5.10;;
10088;SDS011;51898;49.864;8.550;2024-02-26T10:08:06;8.80;;;5.40;;
10088;SDS011;51898;49.864;8.550;2024-02-26T10:11:09;6.07;;;5.30;;
10088;SDS011;51898;49.864;8.550;2024-02-26T10:14:11;8.17;;;5.83;;
10088;SDS011;51898;49.864;8.550;2024-02-26T10:17:13;9.73;;;5.80;;
10088;SDS011;51898;49.864;8.550;2024-02-26T10:20:16;7.70;;;5.73;;
10088;SDS011;51898;49.864;8.550;2024-02-26T10:23:25;8.83;;;5.70;;
10088;SDS011;51898;49.864;8.550;2024-02-26T10:26:27;7.20;;;5.07;;
10088;SDS011;51898;49.864;8.550;2024-02-26T10:29:28;8.63;;;5.30;;
10088;SDS011;51898;49.864;8.550;2024-02-26T10:32:32;8.07;;;5.73;;
10088;SDS011;51898;49.864;8.550;2024-02-26T10:35:34;7.70;;;4.80;;
10088;SDS011;51898;49.864;8.550;2024-02-26T10:38:40;6.63;;;5.00;;
10088;SDS011;51898;49.864;8.550;2024-02-26T10:41:43;5.90;;;4.90;;
10088;SDS011;51898;49.864;8.550;2024-02-26T10:44:46;6.10;;;5.30;;
10088;SDS011;51898;49.864;8.550;2024-02-26T10:47:50;6.63;;;4.80;;
10088;SDS011;51898;49.864;8.550;2024-02-26T10:50:52;7.50;;;5.20;;
10088;SDS011;51898;49.864;8.550;2024-02-26T10:53:57;6.50;;;4.57;;
10088;SDS011;51898;49.864;8.550;2024-02-26T10:57:02;7.23;;;5.03;;
10088;SDS011;51898;49.864;8.550;2024-02-26T11:00:05;7.40;;;4.73;;
10088;SDS011;51898;49.864;8.550;2024-02-26T11:03:08;7.13;;;4.87;;
10088;SDS011;51898;49.864;8.550;2024-02-26T11:06:12;5.87;;;4.60;;
10088;SDS011;51898;49.864;8.550;2024-02-26T11:09:15;5.07;;;4.10;;
10088;SDS011;51898;49.864;8.550;2024-02-26T11:12:18;6.87;;;4.63;;
10088;SDS011;51898;49.864;8.550;2024-02-26T11:15:22;5.00;;;4.30;;
10088;SDS011;51898;49.864;8.550;2024-02-26T11:18:26;6.10;;;4.93;;
10088;SDS011;51898;49.864;8.550;2024-02-26T11:21:28;6.67;;;5.30;;
10088;SDS011;51898;49.864;8.550;2024-02-26T11:24:41;7.37;;;4.83;;
10088;SDS011;51898;49.864;8.550;2024-02-26T11:27:44;6.27;;;4.47;;
10088;SDS011;51898;49.864;8.550;2024-02-26T11:30:50;5.60;;;4.27;;
10088;SDS011;51898;49.864;8.550;2024-02-26T11:33:53;5.80;;;4.40;;
10088;SDS011;51898;49.864;8.550;2024-02-26T11:36:57;5.37;;;4.30;;
10088;SDS011;51898;49.864;8.550;2024-02-26T11:39:59;7.63;;;4.60;;
10088;SDS011;51898;49.864;8.550;2024-02-26T11:43:04;5.10;;;4.20;;
10088;SDS011;51898;49.864;8.550;2024-02-26T11:46:07;6.60;;;4.37;;
10088;SDS011;51898;49.864;8.550;2024-02-26T11:52:29;7.60;;;4.90;;
10088;SDS011;51898;49.864;8.550;2024-02-26T11:55:34;5.27;;;4.17;;
10088;SDS011;51898;49.864;8.550;2024-02-26T11:58:35;4.50;;;3.63;;
10088;SDS011;51898;49.864;8.550;2024-02-26T12:01:43;6.23;;;4.57;;
10088;SDS011;51898;49.864;8.550;2024-02-26T12:04:53;6.27;;;4.17;;
10088;SDS011;51898;49.864;8.550;2024-02-26T12:07:55;9.17;;;4.93;;
10088;SDS011;51898;49.864;8.550;2024-02-26T12:11:04;6.50;;;4.50;;
10088;SDS011;51898;49.864;8.550;2024-02-26T12:14:16;7.20;;;4.87;;
10088;SDS011;51898;49.864;8.550;2024-02-26T12:17:20;5.67;;;4.67;;
10088;SDS011;51898;49.864;8.550;2024-02-26T12:20:23;7.93;;;3.53;;
10088;SDS011;51898;49.864;8.550;2024-02-26T12:23:25;6.40;;;4.33;;
10088;SDS011;51898;49.864;8.550;2024-02-26T12:26:27;4.90;;;4.40;;
10088;SDS011;51898;49.864;8.550;2024-02-26T12:29:29;8.27;;;4.53;;
10088;SDS011;51898;49.864;8.550;2024-02-26T12:32:30;7.07;;;4.30;;
10088;SDS011;51898;49.864;8.550;2024-02-26T12:35:33;6.93;;;4.50;;
10088;SDS011;51898;49.864;8.550;2024-02-26T12:38:35;7.90;;;4.77;;
10088;SDS011;51898;49.864;8.550;2024-02-26T12:41:38;6.30;;;4.50;;
10088;SDS011;51898;49.864;8.550;2024-02-26T12:44:41;7.23;;;4.33;;
10088;SDS011;51898;49.864;8.550;2024-02-26T12:47:43;5.67;;;4.57;;
10088;SDS011;51898;49.864;8.550;2024-02-26T12:50:47;6.13;;;4.97;;
10088;SDS011;51898;49.864;8.550;2024-02-26T12:53:49;6.10;;;4.70;;
10088;SDS011;51898;49.864;8.550;2024-02-26T12:56:54;8.43;;;4.40;;
10088;SDS011;51898;49.864;8.550;2024-02-26T12:59:56;5.20;;;4.60;;
10088;SDS011;51898;49.864;8.550;2024-02-26T13:02:59;5.50;;;4.60;;
10088;SDS011;51898;49.864;8.550;2024-02-26T13:06:02;8.50;;;5.63;;
10088;SDS011;51898;49.864;8.550;2024-02-26T13:09:04;6.40;;;4.87;;
10088;SDS011;51898;49.864;8.550;2024-02-26T13:12:07;5.73;;;5.10;;
10088;SDS011;51898;49.864;8.550;2024-02-26T13:15:13;6.93;;;4.23;;
10088;SDS011;51898;49.864;8.550;2024-02-26T13:18:17;5.80;;;4.70;;
10088;SDS011;51898;49.864;8.550;2024-02-26T13:21:18;6.23;;;4.80;;
10088;SDS011;51898;49.864;8.550;2024-02-26T13:24:21;7.50;;;5.07;;
10088;SDS011;51898;49.864;8.550;2024-02-26T13:27:23;7.03;;;4.70;;
10088;SDS011;51898;49.864;8.550;2024-02-26T13:30:25;6.93;;;6.13;;
10088;SDS011;51898;49.864;8.550;2024-02-26T13:33:29;6.17;;;4.87;;
10088;SDS011;51898;49.864;8.550;2024-02-26T13:36:31;6.77;;;5.00;;
10088;SDS011;51898;49.864;8.550;2024-02-26T13:39:33;6.43;;;4.80;;
10088;SDS011;51898;49.864;8.550;2024-02-26T13:42:39;9.27;;;4.93;;
10088;SDS011;51898;49.864;8.550;2024-02-26T13:45:41;7.17;;;4.60;;
10088;SDS011;51898;49.864;8.550;2024-02-26T13:48:43;6.50;;;4.70;;
10088;SDS011;51898;49.864;8.550;2024-02-26T13:51:45;7.03;;;4.67;;
10088;SDS011;51898;49.864;8.550;2024-02-26T13:54:47;5.60;;;4.60;;
10088;SDS011;51898;49.864;8.550;2024-02-26T13:57:49;5.10;;;4.03;;
10088;SDS011;51898;49.864;8.550;2024-02-26T14:00:54;7.83;;;4.93;;
10088;SDS011;51898;49.864;8.550;2024-02-26T14:03:57;5.17;;;4.40;;
10088;SDS011;51898;49.864;8.550;2024-02-26T14:06:59;6.77;;;4.80;;
10088;SDS011;51898;49.864;8.550;2024-02-26T14:10:01;5.13;;;4.27;;
10088;SDS011;51898;49.864;8.550;2024-02-26T14:13:03;7.07;;;4.53;;
10088;SDS011;51898;49.864;8.550;2024-02-26T14:16:05;4.37;;;3.80;;
10088;SDS011;51898;49.864;8.550;2024-02-26T14:19:07;7.10;;;4.80;;
10088;SDS011;51898;49.864;8.550;2024-02-26T14:22:12;6.53;;;4.37;;
10088;SDS011;51898;49.864;8.550;2024-02-26T14:25:14;8.80;;;5.33;;
10088;SDS011;51898;49.864;8.550;2024-02-26T14:28:16;8.03;;;5.33;;
10088;SDS011;51898;49.864;8.550;2024-02-26T14:31:25;5.23;;;4.37;;
10088;SDS011;51898;49.864;8.550;2024-02-26T14:34:27;5.27;;;4.40;;
10088;SDS011;51898;49.864;8.550;2024-02-26T14:37:29;6.47;;;4.47;;
10088;SDS011;51898;49.864;8.550;2024-02-26T14:40:32;6.63;;;4.90;;
10088;SDS011;51898;49.864;8.550;2024-02-26T14:43:33;7.03;;;4.17;;
10088;SDS011;51898;49.864;8.550;2024-02-26T14:46:36;5.23;;;4.13;;
10088;SDS011;51898;49.864;8.550;2024-02-26T14:49:38;6.73;;;4.60;;
10088;SDS011;51898;49.864;8.550;2024-02-26T14:52:40;8.17;;;4.37;;
10088;SDS011;51898;49.864;8.550;2024-02-26T14:55:41;7.40;;;4.33;;
10088;SDS011;51898;49.864;8.550;2024-02-26T14:58:43;5.97;;;4.13;;
10088;SDS011;51898;49.864;8.550;2024-02-26T15:01:45;6.03;;;4.47;;
10088;SDS011;51898;49.864;8.550;2024-02-26T15:04:48;8.27;;;4.70;;
10088;SDS011;51898;49.864;8.550;2024-02-26T15:07:50;5.13;;;4.37;;
10088;SDS011;51898;49.864;8.550;2024-02-26T15:10:52;6.30;;;4.33;;
10088;SDS011;51898;49.864;8.550;2024-02-26T15:13:54;5.27;;;3.73;;
10088;SDS011;51898;49.864;8.550;2024-02-26T15:16:55;6.10;;;4.00;;
10088;SDS011;51898;49.864;8.550;2024-02-26T15:19:57;7.80;;;3.90;;
10088;SDS011;51898;49.864;8.550;2024-02-26T15:23:00;6.33;;;4.30;;
10088;SDS011;51898;49.864;8.550;2024-02-26T15:26:02;8.13;;;4.50;;
10088;SDS011;51898;49.864;8.550;2024-02-26T15:29:04;6.40;;;4.30;;
10088;SDS011;51898;49.864;8.550;2024-02-26T15:32:06;8.60;;;4.00;;
10088;SDS011;51898;49.864;8.550;2024-02-26T15:35:09;4.37;;;3.73;;
10088;SDS011;51898;49.864;8.550;2024-02-26T15:38:11;4.50;;;3.70;;
10088;SDS011;51898;49.864;8.550;2024-02-26T15:41:15;5.77;;;3.70;;
10088;SDS011;51898;49.864;8.550;2024-02-26T15:44:18;3.97;;;3.17;;
10088;SDS011;51898;49.864;8.550;2024-02-26T15:47:20;4.87;;;3.63;;
10088;SDS011;51898;49.864;8.550;2024-02-26T15:50:21;5.50;;;3.60;;
10088;SDS011;51898;49.864;8.550;2024-02-26T15:53:23;4.43;;;3.90;;
10088;SDS011;51898;49.864;8.550;2024-02-26T15:56:25;5.83;;;3.43;;
10088;SDS011;51898;49.864;8.550;2024-02-26T15:59:27;3.53;;;3.20;;
10088;SDS011;51898;49.864;8.550;2024-02-26T16:02:29;4.87;;;3.70;;
10088;SDS011;51898;49.864;8.550;2024-02-26T16:05:30;5.40;;;3.80;;
10088;SDS011;51898;49.864;8.550;2024-02-26T16:08:32;4.97;;;3.20;;
10088;SDS011;51898;49.864;8.550;2024-02-26T16:11:34;4.37;;;3.10;;
10088;SDS011;51898;49.864;8.550;2024-02-26T16:17:51;5.33;;;3.80;;
10088;SDS011;51898;49.864;8.550;2024-02-26T16:20:56;3.60;;;3.30;;
10088;SDS011;51898;49.864;8.550;2024-02-26T16:23:58;4.73;;;3.50;;
10088;SDS011;51898;49.864;8.550;2024-02-26T16:27:00;5.07;;;3.67;;
10088;SDS011;51898;49.864;8.550;2024-02-26T16:30:06;4.30;;;3.87;;
10088;SDS011;51898;49.864;8.550;2024-02-26T16:33:09;4.60;;;3.93;;
10088;SDS011;51898;49.864;8.550;2024-02-26T16:36:11;5.90;;;4.13;;
10088;SDS011;51898;49.864;8.550;2024-02-26T16:39:13;5.47;;;4.17;;
10088;SDS011;51898;49.864;8.550;2024-02-26T16:42:15;6.37;;;4.80;;
10088;SDS011;51898;49.864;8.550;2024-02-26T16:45:17;7.87;;;4.20;;
10088;SDS011;51898;49.864;8.550;2024-02-26T16:48:19;5.37;;;4.17;;
10088;SDS011;51898;49.864;8.550;2024-02-26T16:51:21;5.63;;;4.57;;
10088;SDS011;51898;49.864;8.550;2024-02-26T16:54:23;7.13;;;4.40;;
10088;SDS011;51898;49.864;8.550;2024-02-26T16:57:25;8.37;;;4.43;;
10088;SDS011;51898;49.864;8.550;2024-02-26T17:00:27;5.50;;;4.27;;
10088;SDS011;51898;49.864;8.550;2024-02-26T17:03:29;5.50;;;3.87;;
10088;SDS011;51898;49.864;8.550;2024-02-26T17:06:32;9.20;;;4.17;;
10088;SDS011;51898;49.864;8.550;2024-02-26T17:09:34;7.23;;;4.77;;
10088;SDS011;51898;49.864;8.550;2024-02-26T17:12:36;7.07;;;4.80;;
10088;SDS011;51898;49.864;8.550;2024-02-26T17:15:38;7.30;;;4.70;;
10088;SDS011;51898;49.864;8.550;2024-02-26T17:18:40;8.00;;;4.10;;
10088;SDS011;51898;49.864;8.550;2024-02-26T17:21:43;6.93;;;4.20;;
10088;SDS011;51898;49.864;8.550;2024-02-26T17:24:45;7.93;;;4.77;;
10088;SDS011;51898;49.864;8.550;2024-02-26T17:27:48;5.13;;;4.43;;
10088;SDS011;51898;49.864;8.550;2024-02-26T17:30:49;8.13;;;4.80;;
10088;SDS011;51898;49.864;8.550;2024-02-26T17:33:51;12.03;;;6.13;;
10088;SDS011;51898;49.864;8.550;2024-02-26T17:36:53;9.20;;;5.60;;
10088;SDS011;51898;49.864;8.550;2024-02-26T17:39:55;11.13;;;5.53;;
10088;SDS011;51898;49.864;8.550;2024-02-26T17:42:58;7.77;;;5.10;;
10088;SDS011;51898;49.864;8.550;2024-02-26T17:46:00;5.87;;;4.50;;
10088;SDS011;51898;49.864;8.550;2024-02-26T17:49:02;6.80;;;4.70;;
10088;SDS011;51898;49.864;8.550;2024-02-26T17:52:04;10.37;;;4.67;;
10088;SDS011;51898;49.864;8.550;2024-02-26T17:55:06;7.30;;;5.23;;
10088;SDS011;51898;49.864;8.550;2024-02-26T17:58:08;6.90;;;5.00;;
10088;SDS011;51898;49.864;8.550;2024-02-26T18:01:10;7.17;;;4.90;;
10088;SDS011;51898;49.864;8.550;2024-02-26T18:04:13;6.73;;;4.77;;
10088;SDS011;51898;49.864;8.550;2024-02-26T18:07:14;8.67;;;5.37;;
10088;SDS011;51898;49.864;8.550;2024-02-26T18:10:16;6.53;;;5.33;;
10088;SDS011;51898;49.864;8.550;2024-02-26T18:13:20;6.40;;;5.13;;
10088;SDS011;51898;49.864;8.550;2024-02-26T18:16:22;7.97;;;5.77;;
10088;SDS011;51898;49.864;8.550;2024-02-26T18:19:23;7.27;;;5.53;;
10088;SDS011;51898;49.864;8.550;2024-02-26T18:22:25;9.43;;;5.10;;
10088;SDS011;51898;49.864;8.550;2024-02-26T18:25:27;8.00;;;4.90;;
10088;SDS011;51898;49.864;8.550;2024-02-26T18:28:31;8.50;;;4.63;;
10088;SDS011;51898;49.864;8.550;2024-02-26T18:31:33;7.03;;;4.63;;
10088;SDS011;51898;49.864;8.550;2024-02-26T18:34:35;7.13;;;4.80;;
10088;SDS011;51898;49.864;8.550;2024-02-26T18:37:39;6.97;;;5.27;;
10088;SDS011;51898;49.864;8.550;2024-02-26T18:40:41;6.87;;;5.10;;
10088;SDS011;51898;49.864;8.550;2024-02-26T18:43:48;5.90;;;4.17;;
10088;SDS011;51898;49.864;8.550;2024-02-26T18:46:51;8.50;;;4.83;;
10088;SDS011;51898;49.864;8.550;2024-02-26T18:49:55;7.23;;;4.67;;
10088;SDS011;51898;49.864;8.550;2024-02-26T18:53:08;7.70;;;4.70;;
10088;SDS011;51898;49.864;8.550;2024-02-26T18:56:12;7.90;;;4.10;;
10088;SDS011;51898;49.864;8.550;2024-02-26T18:59:25;8.63;;;5.10;;
10088;SDS011;51898;49.864;8.550;2024-02-26T19:02:27;9.50;;;4.83;;
10088;SDS011;51898;49.864;8.550;2024-02-26T19:05:30;6.97;;;4.77;;
10088;SDS011;51898;49.864;8.550;2024-02-26T19:08:39;7.30;;;4.37;;
10088;SDS011;51898;49.864;8.550;2024-02-26T19:11:45;13.13;;;4.93;;
10088;SDS011;51898;49.864;8.550;2024-02-26T19:14:49;6.33;;;4.80;;
10088;SDS011;51898;49.864;8.550;2024-02-26T19:17:51;6.23;;;4.70;;
10088;SDS011;51898;49.864;8.550;2024-02-26T19:20:57;6.80;;;4.70;;
10088;SDS011;51898;49.864;8.550;2024-02-26T19:24:00;6.00;;;4.83;;
10088;SDS011;51898;49.864;8.550;2024-02-26T19:27:04;5.70;;;3.80;;
10088;SDS011;51898;49.864;8.550;2024-02-26T19:30:06;4.43;;;3.93;;
10088;SDS011;51898;49.864;8.550;2024-02-26T19:33:08;7.63;;;4.50;;
10088;SDS011;51898;49.864;8.550;2024-02-26T19:36:12;8.40;;;4.93;;
10088;SDS011;51898;49.864;8.550;2024-02-26T19:39:14;8.57;;;4.97;;
10088;SDS011;51898;49.864;8.550;2024-02-26T19:42:16;8.13;;;4.13;;
10088;SDS011;51898;49.864;8.550;2024-02-26T19:45:18;5.70;;;4.80;;
10088;SDS011;51898;49.864;8.550;2024-02-26T19:48:20;5.70;;;4.30;;
10088;SDS011;51898;49.864;8.550;2024-02-26T19:51:21;8.40;;;5.27;;
10088;SDS011;51898;49.864;8.550;2024-02-26T19:54:23;6.90;;;5.00;;
10088;SDS011;51898;49.864;8.550;2024-02-26T19:57:25;6.57;;;5.03;;
10088;SDS011;51898;49.864;8.550;2024-02-26T20:00:27;7.50;;;5.83;;
10088;SDS011;51898;49.864;8.550;2024-02-26T20:03:29;7.67;;;5.30;;
10088;SDS011;51898;49.864;8.550;2024-02-26T20:06:31;7.20;;;5.23;;
10088;SDS011;51898;49.864;8.550;2024-02-26T20:09:34;9.37;;;6.10;;
10088;SDS011;51898;49.864;8.550;2024-02-26T20:12:36;5.93;;;4.93;;
10088;SDS011;51898;49.864;8.550;2024-02-26T20:15:38;6.97;;;5.37;;
10088;SDS011;51898;49.864;8.550;2024-02-26T20:18:40;8.70;;;5.53;;
10088;SDS011;51898;49.864;8.550;2024-02-26T20:21:42;8.80;;;6.00;;
10088;SDS011;51898;49.864;8.550;2024-02-26T20:24:44;5.63;;;4.93;;
10088;SDS011;51898;49.864;8.550;2024-02-26T20:27:46;5.50;;;4.83;;
10088;SDS011;51898;49.864;8.550;2024-02-26T20:30:47;7.20;;;5.00;;
10088;SDS011;51898;49.864;8.550;2024-02-26T20:33:50;8.67;;;5.40;;
10088;SDS011;51898;49.864;8.550;2024-02-26T20:36:52;17.37;;;7.30;;
10088;SDS011;51898;49.864;8.550;2024-02-26T20:39:54;15.77;;;7.40;;
10088;SDS011;51898;49.864;8.550;2024-02-26T20:42:56;13.63;;;6.30;;
10088;SDS011;51898;49.864;8.550;2024-02-26T20:45:57;6.50;;;4.40;;
10088;SDS011;51898;49.864;8.550;2024-02-26T20:48:59;6.50;;;4.50;;
10088;SDS011;51898;49.864;8.550;2024-02-26T20:52:01;7.70;;;5.50;;
10088;SDS011;51898;49.864;8.550;2024-02-26T20:55:03;9.23;;;5.40;;
10088;SDS011;51898;49.864;8.550;2024-02-26T20:58:05;9.23;;;5.07;;
10088;SDS011;51898;49.864;8.550;2024-02-26T21:01:07;8.00;;;4.60;;